Time;durP1;ratioP1;P1;durP2;ratioP2;P2;SDS_P1;SDS_P2;PMS_P1;PMS_P2;Temp;Humidity;BMP_temperature;BMP_pressure;BME280_temperature;BME280_humidity;BME280_pressure;Samples;Min_cycle;Max_cycle;Signal;HPM_P1;HPM_P2
2023/10/06 00:00:50;;;;;;;12.20;5.25;;;14.40;99.90;;;;;;2090996;28;20120;-74
2023/10/06 00:01:50;;;;;;;10.48;5.55;;;14.40;99.90;;;;;;2081642;28;20591;-73
2023/10/06 00:02:51;;;;;;;11.43;5.53;;;14.40;99.90;;;;;;2084633;28;20055;-71
2023/10/06 00:03:57;;;;;;;13.27;5.88;;;14.40;99.90;;;;;;2083183;28;20168;-72
2023/10/06 00:04:58;;;;;;;12.63;5.90;;;14.40;99.90;;;;;;2076196;28;20021;-72
2023/10/06 00:05:59;;;;;;;10.52;5.47;;;14.40;99.90;;;;;;2081738;28;20033;-72
2023/10/06 00:07:06;;;;;;;11.25;5.50;;;14.30;99.90;;;;;;2082188;28;20029;-72
2023/10/06 00:08:20;;;;;;;8.73;5.40;;;14.30;99.90;;;;;;2092115;28;20036;-72
2023/10/06 00:09:30;;;;;;;8.32;5.07;;;14.30;99.90;;;;;;2084052;28;20116;-72
2023/10/06 00:10:32;;;;;;;11.27;5.20;;;14.30;99.90;;;;;;2086773;28;20040;-71
2023/10/06 00:11:32;;;;;;;10.40;5.47;;;14.30;99.90;;;;;;2086286;28;20032;-72
2023/10/06 00:12:33;;;;;;;13.18;5.90;;;14.30;99.90;;;;;;2082306;28;20029;-72
2023/10/06 00:13:37;;;;;;;12.82;5.40;;;14.40;99.90;;;;;;2095805;28;20756;-73
2023/10/06 00:14:43;;;;;;;11.20;5.75;;;14.30;99.90;;;;;;2086150;28;20559;-72
2023/10/06 00:15:45;;;;;;;11.07;5.20;;;14.40;99.90;;;;;;2083008;28;20029;-73
2023/10/06 00:16:46;;;;;;;9.98;5.30;;;14.30;99.90;;;;;;2091156;28;20399;-73
2023/10/06 00:17:49;;;;;;;10.38;5.60;;;14.30;99.90;;;;;;2091043;28;20052;-72
2023/10/06 00:18:52;;;;;;;10.35;5.50;;;14.30;99.90;;;;;;2091119;28;20754;-72
2023/10/06 00:19:55;;;;;;;10.15;5.40;;;14.30;99.90;;;;;;2082311;28;20029;-73
2023/10/06 00:20:57;;;;;;;10.23;5.28;;;14.30;99.90;;;;;;2089439;28;20025;-73
2023/10/06 00:23:22;;;;;;;12.18;5.28;;;14.20;99.90;;;;;;2084860;28;20067;-73
2023/10/06 00:24:25;;;;;;;13.60;5.38;;;14.20;99.90;;;;;;2086368;28;20120;-73
2023/10/06 00:25:27;;;;;;;9.20;5.25;;;14.20;99.90;;;;;;2085678;28;20049;-73
2023/10/06 00:26:28;;;;;;;12.50;5.40;;;14.20;99.90;;;;;;2092174;28;20032;-73
2023/10/06 00:27:32;;;;;;;9.95;5.30;;;14.20;99.90;;;;;;2099002;28;20059;-73
2023/10/06 00:28:32;;;;;;;12.98;5.50;;;14.20;99.90;;;;;;2091359;28;20047;-73
2023/10/06 00:29:35;;;;;;;12.32;5.00;;;14.20;99.90;;;;;;2082160;28;20029;-73
2023/10/06 00:30:36;;;;;;;11.60;5.40;;;14.30;99.90;;;;;;2086842;28;20059;-72
2023/10/06 00:31:36;;;;;;;10.35;5.40;;;14.20;99.90;;;;;;2099192;28;20099;-72
2023/10/06 00:32:37;;;;;;;10.45;5.05;;;14.20;99.90;;;;;;2099275;28;20020;-72
2023/10/06 00:33:38;;;;;;;12.68;5.00;;;14.30;99.90;;;;;;2091418;28;20446;-72
2023/10/06 00:34:39;;;;;;;11.27;5.18;;;14.30;99.90;;;;;;2085752;28;20036;-73
2023/10/06 00:35:40;;;;;;;10.98;5.57;;;14.30;99.90;;;;;;2079803;28;20103;-73
2023/10/06 00:36:41;;;;;;;11.00;5.28;;;14.30;99.90;;;;;;2075593;28;20026;-72
2023/10/06 00:37:43;;;;;;;9.50;4.88;;;14.30;99.90;;;;;;2078814;28;20063;-72
2023/10/06 00:38:45;;;;;;;11.05;5.40;;;14.40;99.90;;;;;;2085145;28;20446;-73
2023/10/06 00:39:46;;;;;;;10.88;4.95;;;14.40;99.90;;;;;;2095811;28;20047;-73
2023/10/06 00:40:55;;;;;;;9.27;5.13;;;14.40;99.90;;;;;;2093282;28;20036;-72
2023/10/06 00:41:56;;;;;;;10.02;5.25;;;14.40;99.90;;;;;;2083748;28;20404;-72
2023/10/06 00:42:59;;;;;;;13.48;5.07;;;14.40;99.90;;;;;;2074193;28;20025;-72
2023/10/06 00:44:01;;;;;;;8.10;4.82;;;14.40;99.90;;;;;;2071483;28;20029;-72
2023/10/06 00:45:05;;;;;;;10.80;5.38;;;14.40;99.90;;;;;;2088581;28;20033;-72
2023/10/06 00:46:07;;;;;;;9.38;5.20;;;14.40;99.90;;;;;;2083590;28;20043;-72
2023/10/06 00:47:10;;;;;;;11.65;5.38;;;14.40;99.90;;;;;;2079956;28;20597;-71
2023/10/06 00:48:14;;;;;;;10.23;5.35;;;14.50;99.90;;;;;;2096682;28;20746;-72
2023/10/06 00:49:16;;;;;;;10.85;5.57;;;14.40;99.90;;;;;;2099816;28;20230;-73
2023/10/06 00:50:22;;;;;;;10.38;5.43;;;14.40;99.90;;;;;;2097134;28;20035;-73
2023/10/06 00:51:26;;;;;;;14.23;5.35;;;14.40;99.90;;;;;;2087771;28;20027;-72
2023/10/06 00:52:26;;;;;;;10.85;5.00;;;14.40;99.90;;;;;;2083984;28;20116;-73
2023/10/06 00:53:31;;;;;;;11.93;5.00;;;14.40;99.90;;;;;;2081263;28;20032;-73
2023/10/06 00:54:33;;;;;;;11.75;5.38;;;14.40;99.90;;;;;;2083606;28;20115;-74
2023/10/06 00:55:35;;;;;;;11.18;5.40;;;14.40;99.90;;;;;;2079329;28;20022;-73
2023/10/06 00:56:36;;;;;;;10.00;5.00;;;14.40;99.90;;;;;;2088046;28;20035;-72
2023/10/06 00:57:37;;;;;;;11.90;5.20;;;14.40;99.90;;;;;;2083685;28;20144;-69
2023/10/06 00:58:41;;;;;;;12.57;4.88;;;14.40;99.90;;;;;;2078904;28;20029;-72
2023/10/06 00:59:41;;;;;;;11.93;5.10;;;14.40;99.90;;;;;;2078486;28;20033;-72
2023/10/06 01:00:42;;;;;;;13.85;5.15;;;14.40;99.90;;;;;;2093151;28;20066;-72
2023/10/06 01:01:43;;;;;;;8.82;4.93;;;14.40;99.90;;;;;;2094026;28;20015;-73
2023/10/06 01:02:44;;;;;;;10.20;5.25;;;14.40;99.90;;;;;;2093158;28;20035;-73
2023/10/06 01:04:08;;;;;;;10.13;4.90;;;14.50;99.90;;;;;;2087730;28;20071;-72
2023/10/06 01:05:09;;;;;;;13.00;5.32;;;14.50;99.90;;;;;;2081864;28;20048;-71
2023/10/06 01:06:13;;;;;;;10.40;4.97;;;14.50;99.90;;;;;;2084288;28;20025;-72
2023/10/06 01:07:15;;;;;;;10.05;5.07;;;14.50;99.90;;;;;;2090592;28;20525;-72
2023/10/06 01:08:16;;;;;;;9.82;4.97;;;14.50;99.90;;;;;;2075630;28;20044;-71
2023/10/06 01:09:17;;;;;;;11.60;5.28;;;14.50;99.90;;;;;;2083622;28;20033;-72
2023/10/06 01:10:27;;;;;;;11.15;5.13;;;14.50;99.90;;;;;;2091961;28;20086;-71
2023/10/06 01:11:27;;;;;;;10.95;4.97;;;14.50;99.90;;;;;;2083685;28;20060;-71
2023/10/06 01:12:31;;;;;;;10.60;5.53;;;14.50;99.90;;;;;;2086757;28;20138;-72
2023/10/06 01:13:33;;;;;;;8.75;5.00;;;14.50;99.90;;;;;;2091005;28;20029;-72
2023/10/06 01:14:35;;;;;;;10.85;4.97;;;14.50;99.90;;;;;;2071331;28;20029;-72
2023/10/06 01:15:36;;;;;;;10.25;4.65;;;14.50;99.90;;;;;;2083684;28;20104;-74
2023/10/06 01:16:37;;;;;;;10.75;4.70;;;14.50;99.90;;;;;;2100068;28;20789;-72
2023/10/06 01:17:37;;;;;;;10.88;5.18;;;14.50;99.90;;;;;;2087626;28;20028;-72
2023/10/06 01:18:41;;;;;;;10.38;5.03;;;14.50;99.90;;;;;;2083642;28;20021;-72
2023/10/06 01:19:49;;;;;;;10.07;4.90;;;14.50;99.90;;;;;;2100003;28;20031;-72
2023/10/06 01:20:50;;;;;;;10.65;4.85;;;14.50;99.90;;;;;;2096589;28;20030;-72
2023/10/06 01:21:53;;;;;;;10.32;4.90;;;14.50;99.90;;;;;;2083406;28;20028;-72
2023/10/06 01:22:56;;;;;;;10.50;5.00;;;14.50;99.90;;;;;;2076961;28;20031;-73
2023/10/06 01:24:11;;;;;;;11.32;4.50;;;14.50;99.90;;;;;;2088017;28;20554;-72
2023/10/06 01:25:21;;;;;;;10.05;5.00;;;14.50;99.90;;;;;;2089312;28;20031;-72
2023/10/06 01:26:24;;;;;;;9.57;4.78;;;14.50;99.90;;;;;;2094482;28;20020;-72
2023/10/06 01:27:28;;;;;;;10.07;4.90;;;14.50;99.90;;;;;;2083137;28;20083;-72
2023/10/06 01:28:28;;;;;;;13.32;5.30;;;14.50;99.90;;;;;;2088151;28;20032;-72
2023/10/06 01:29:30;;;;;;;8.75;4.82;;;14.50;99.90;;;;;;2095204;28;20039;-73
2023/10/06 01:30:30;;;;;;;11.25;5.22;;;14.40;99.90;;;;;;2083905;28;20040;-73
2023/10/06 01:31:31;;;;;;;11.93;5.18;;;14.50;99.90;;;;;;2086784;28;20733;-73
2023/10/06 01:32:32;;;;;;;11.25;4.95;;;14.40;99.90;;;;;;2097091;28;20032;-72
2023/10/06 01:33:32;;;;;;;8.00;4.57;;;14.40;99.90;;;;;;2086910;28;20039;-73
2023/10/06 01:34:39;;;;;;;10.23;4.70;;;14.40;99.90;;;;;;2083726;28;20029;-73
2023/10/06 01:35:42;;;;;;;10.15;4.93;;;14.40;99.90;;;;;;2084167;28;20079;-73
2023/10/06 01:36:43;;;;;;;9.80;5.15;;;14.40;99.90;;;;;;2083081;28;20033;-72
2023/10/06 01:37:44;;;;;;;12.57;5.28;;;14.40;99.90;;;;;;2079386;28;20021;-73
2023/10/06 01:38:45;;;;;;;11.98;5.00;;;14.50;99.90;;;;;;2091787;28;20013;-73
2023/10/06 01:39:48;;;;;;;10.10;4.90;;;14.50;99.90;;;;;;2099827;28;20097;-72
2023/10/06 01:40:53;;;;;;;8.98;4.85;;;14.50;99.90;;;;;;2085350;28;20155;-72
2023/10/06 01:41:53;;;;;;;8.68;4.57;;;14.50;99.90;;;;;;2079203;28;20108;-73
2023/10/06 01:42:54;;;;;;;9.70;4.80;;;14.60;99.90;;;;;;2089703;28;20028;-73
2023/10/06 01:43:55;;;;;;;12.20;4.97;;;14.60;99.90;;;;;;2088831;28;20078;-72
2023/10/06 01:45:03;;;;;;;11.55;5.20;;;14.60;99.90;;;;;;2085730;28;20467;-72
2023/10/06 01:46:07;;;;;;;9.70;4.80;;;14.60;99.90;;;;;;2083933;28;20511;-75
2023/10/06 01:47:08;;;;;;;9.85;4.60;;;14.50;99.90;;;;;;2078221;28;20105;-74
2023/10/06 01:49:14;;;;;;;10.57;4.90;;;14.50;99.90;;;;;;2080174;28;20776;-74
2023/10/06 01:50:17;;;;;;;8.50;4.70;;;14.50;99.90;;;;;;2075058;28;20087;-75
2023/10/06 01:51:17;;;;;;;10.18;4.90;;;14.50;99.90;;;;;;2074967;28;20052;-75
2023/10/06 01:52:19;;;;;;;10.25;4.90;;;14.50;99.90;;;;;;2068174;28;20137;-74
2023/10/06 01:53:20;;;;;;;10.55;4.85;;;14.50;99.90;;;;;;2091347;28;20913;-74
2023/10/06 01:54:25;;;;;;;7.90;4.47;;;14.50;99.90;;;;;;2083291;28;20206;-75
2023/10/06 01:55:26;;;;;;;11.27;4.68;;;14.50;99.90;;;;;;2090251;28;20036;-75
2023/10/06 01:56:27;;;;;;;12.13;4.78;;;14.50;99.90;;;;;;2083035;28;20025;-75
2023/10/06 01:57:27;;;;;;;12.15;5.05;;;14.50;99.90;;;;;;2083057;28;20052;-74
2023/10/06 01:58:28;;;;;;;9.25;4.90;;;14.50;99.90;;;;;;2090694;28;20246;-75
2023/10/06 01:59:30;;;;;;;10.48;4.93;;;14.50;99.90;;;;;;2080561;28;20126;-75
2023/10/06 02:00:34;;;;;;;10.57;4.60;;;14.50;99.90;;;;;;2086172;28;20079;-76
2023/10/06 02:01:38;;;;;;;10.60;4.80;;;14.50;99.90;;;;;;2083498;28;20506;-75
2023/10/06 02:02:39;;;;;;;11.88;4.38;;;14.50;99.90;;;;;;2071022;28;20658;-75
2023/10/06 02:03:40;;;;;;;9.07;4.70;;;14.50;99.90;;;;;;2075282;28;20103;-73
2023/10/06 02:04:45;;;;;;;10.18;4.72;;;14.50;99.90;;;;;;2071092;28;20588;-75
2023/10/06 02:05:45;;;;;;;10.25;4.50;;;14.60;99.90;;;;;;2067154;28;20026;-74
2023/10/06 02:06:51;;;;;;;8.10;4.40;;;14.60;99.90;;;;;;2058401;28;20085;-72
2023/10/06 02:07:52;;;;;;;9.38;4.65;;;14.60;99.90;;;;;;2065780;28;20022;-74
2023/10/06 02:08:54;;;;;;;9.48;4.55;;;14.60;99.90;;;;;;2082980;28;20527;-74
2023/10/06 02:09:54;;;;;;;10.30;4.72;;;14.60;99.90;;;;;;2085179;28;20024;-73
2023/10/06 02:10:55;;;;;;;11.15;5.10;;;14.70;99.90;;;;;;2085287;28;20021;-74
2023/10/06 02:11:56;;;;;;;12.43;4.63;;;14.60;99.90;;;;;;2089462;28;20853;-73
2023/10/06 02:12:57;;;;;;;8.60;4.57;;;14.60;99.90;;;;;;2084810;28;20021;-74
2023/10/06 02:14:04;;;;;;;11.48;4.65;;;14.60;99.90;;;;;;2091583;28;20017;-74
2023/10/06 02:15:12;;;;;;;10.35;4.82;;;14.60;99.90;;;;;;2092383;28;20032;-74
2023/10/06 02:16:13;;;;;;;10.27;4.53;;;14.60;99.90;;;;;;2075034;28;20018;-74
2023/10/06 02:17:13;;;;;;;10.05;4.85;;;14.60;99.90;;;;;;2082638;28;20021;-74
2023/10/06 02:18:14;;;;;;;8.70;4.80;;;14.60;99.90;;;;;;2083032;28;20016;-74
2023/10/06 02:19:16;;;;;;;9.18;4.72;;;14.50;99.90;;;;;;2070876;28;20013;-74
2023/10/06 02:21:29;;;;;;;11.20;5.15;;;14.50;99.90;;;;;;2098350;28;20032;-73
2023/10/06 02:22:30;;;;;;;8.38;4.90;;;14.60;99.90;;;;;;2080019;28;20009;-75
2023/10/06 02:23:37;;;;;;;9.45;4.68;;;14.60;99.90;;;;;;2081295;28;20056;-75
2023/10/06 02:24:38;;;;;;;10.10;4.28;;;14.60;99.90;;;;;;2091445;28;20028;-75
2023/10/06 02:25:39;;;;;;;12.32;4.70;;;14.50;99.90;;;;;;2074339;28;20045;-75
2023/10/06 02:26:40;;;;;;;7.63;4.55;;;14.50;99.90;;;;;;2086883;28;20025;-76
2023/10/06 02:27:47;;;;;;;10.55;5.05;;;14.50;99.90;;;;;;2087696;28;20056;-74
2023/10/06 02:28:48;;;;;;;11.38;4.57;;;14.50;99.90;;;;;;2080934;28;20074;-75
2023/10/06 02:29:49;;;;;;;8.10;4.20;;;14.60;99.90;;;;;;2085679;28;20500;-76
2023/10/06 02:30:54;;;;;;;8.50;4.57;;;14.60;99.90;;;;;;2095940;28;20112;-75
2023/10/06 02:32:01;;;;;;;7.43;4.40;;;14.60;99.90;;;;;;2084024;28;20041;-75
2023/10/06 02:33:03;;;;;;;10.25;4.50;;;14.60;99.90;;;;;;2086773;28;20550;-75
2023/10/06 02:34:11;;;;;;;9.85;4.70;;;14.60;99.90;;;;;;2075098;28;20024;-75
2023/10/06 02:35:12;;;;;;;8.43;4.50;;;14.60;99.90;;;;;;2080620;28;20487;-74
2023/10/06 02:36:17;;;;;;;10.32;4.50;;;14.60;99.90;;;;;;2091929;28;20027;-74
2023/10/06 02:37:22;;;;;;;9.88;4.70;;;14.60;99.90;;;;;;2082678;28;20029;-73
2023/10/06 02:38:28;;;;;;;7.30;4.43;;;14.60;99.90;;;;;;2085230;28;20016;-74
2023/10/06 02:39:33;;;;;;;10.10;4.90;;;14.50;99.90;;;;;;2064037;28;20153;-74
2023/10/06 02:40:43;;;;;;;10.52;4.70;;;14.50;99.90;;;;;;2080445;28;20048;-74
2023/10/06 02:41:46;;;;;;;10.13;4.57;;;14.50;99.90;;;;;;2087974;28;20391;-74
2023/10/06 02:42:51;;;;;;;10.63;4.60;;;14.50;99.90;;;;;;2088332;28;20056;-73
2023/10/06 02:43:53;;;;;;;7.93;4.60;;;14.40;99.90;;;;;;2084410;28;20215;-73
2023/10/06 02:44:54;;;;;;;9.00;4.85;;;14.40;99.90;;;;;;2076803;28;20052;-75
2023/10/06 02:46:03;;;;;;;8.38;4.63;;;14.40;99.90;;;;;;2080403;28;20028;-75
2023/10/06 02:47:11;;;;;;;9.67;4.70;;;14.50;99.90;;;;;;2089045;28;20059;-75
2023/10/06 02:48:15;;;;;;;8.90;4.55;;;14.50;99.90;;;;;;2070714;28;20740;-75
2023/10/06 02:49:23;;;;;;;8.57;4.72;;;14.50;99.90;;;;;;2083422;28;20021;-73
2023/10/06 02:50:24;;;;;;;15.65;4.80;;;14.50;99.90;;;;;;2098280;28;20545;-74
2023/10/06 02:51:43;;;;;;;9.02;4.55;;;14.50;99.90;;;;;;2082671;28;20033;-74
2023/10/06 02:52:46;;;;;;;9.60;4.50;;;14.50;99.90;;;;;;2081425;28;20021;-73
2023/10/06 02:53:51;;;;;;;9.43;4.50;;;14.50;99.90;;;;;;2095705;28;20020;-74
2023/10/06 02:55:04;;;;;;;11.70;5.15;;;14.50;99.90;;;;;;2082339;28;20029;-74
2023/10/06 02:56:09;;;;;;;11.13;4.30;;;14.50;99.90;;;;;;2079458;28;20028;-74
2023/10/06 02:57:11;;;;;;;10.55;4.20;;;14.50;99.90;;;;;;2078257;28;20029;-74
2023/10/06 02:58:23;;;;;;;8.30;4.82;;;14.50;99.90;;;;;;2078038;28;20573;-74
2023/10/06 02:59:25;;;;;;;10.77;4.60;;;14.50;99.90;;;;;;2087000;28;20033;-74
2023/10/06 03:01:26;;;;;;;12.60;5.05;;;14.50;99.90;;;;;;2088771;28;20033;-75
2023/10/06 03:02:27;;;;;;;11.85;4.80;;;14.50;99.90;;;;;;2093725;28;20028;-75
2023/10/06 03:03:33;;;;;;;10.15;4.70;;;14.50;99.90;;;;;;2074304;28;20025;-75
2023/10/06 03:04:36;;;;;;;10.07;4.60;;;14.50;99.90;;;;;;2081083;28;20031;-75
2023/10/06 03:05:39;;;;;;;9.20;4.55;;;14.50;99.90;;;;;;2079746;28;20041;-74
2023/10/06 03:06:40;;;;;;;10.02;4.38;;;14.50;99.90;;;;;;2078527;28;20021;-74
2023/10/06 03:07:45;;;;;;;8.85;4.80;;;14.50;99.90;;;;;;2075469;28;20476;-74
2023/10/06 03:08:47;;;;;;;10.15;4.40;;;14.50;99.90;;;;;;2076410;28;20032;-75
2023/10/06 03:09:48;;;;;;;10.23;4.82;;;14.60;99.90;;;;;;2086857;28;20063;-75
2023/10/06 03:10:49;;;;;;;11.65;4.85;;;14.60;99.90;;;;;;2091248;28;20083;-75
2023/10/06 03:11:50;;;;;;;8.55;4.45;;;14.50;99.90;;;;;;2092485;28;20016;-74
2023/10/06 03:12:52;;;;;;;9.98;4.70;;;14.50;99.90;;;;;;2086879;28;20957;-75
2023/10/06 03:13:55;;;;;;;8.52;4.53;;;14.50;99.90;;;;;;2076993;28;20032;-75
2023/10/06 03:14:56;;;;;;;21.90;13.43;;;14.50;99.90;;;;;;2076630;28;20030;-74
2023/10/06 03:15:59;;;;;;;14.38;7.57;;;14.50;99.90;;;;;;2080136;28;20482;-75
2023/10/06 03:17:00;;;;;;;11.48;5.22;;;14.50;99.90;;;;;;2074133;28;20052;-73
2023/10/06 03:18:02;;;;;;;10.38;4.65;;;14.50;99.90;;;;;;2090518;28;20024;-74
2023/10/06 03:19:05;;;;;;;13.90;5.05;;;14.50;99.90;;;;;;2082466;28;20025;-74
2023/10/06 03:22:13;;;;;;;14.23;5.22;;;14.50;99.90;;;;;;2091360;28;20577;-74
2023/10/06 03:23:30;;;;;;;8.70;4.80;;;14.50;99.90;;;;;;2092096;28;20111;-73
2023/10/06 03:24:31;;;;;;;9.93;4.80;;;14.50;99.90;;;;;;2083651;28;20032;-73
2023/10/06 03:25:35;;;;;;;10.18;5.05;;;14.40;99.90;;;;;;2069836;28;20677;-73
2023/10/06 03:26:43;;;;;;;9.68;4.70;;;14.50;99.90;;;;;;2071648;28;20021;-74
2023/10/06 03:27:54;;;;;;;10.38;4.95;;;14.40;99.90;;;;;;2066763;28;20030;-73
2023/10/06 03:29:02;;;;;;;11.90;4.68;;;14.50;99.90;;;;;;2067035;28;20035;-75
2023/10/06 03:30:18;;;;;;;13.38;5.00;;;14.40;99.90;;;;;;2078367;28;20025;-74
2023/10/06 03:32:28;;;;;;;11.48;4.70;;;14.40;99.90;;;;;;2068411;28;20485;-73
2023/10/06 03:33:29;;;;;;;9.20;4.50;;;14.40;99.90;;;;;;2066988;28;20540;-73
2023/10/06 03:34:31;;;;;;;8.52;4.50;;;14.40;99.90;;;;;;2066183;28;20037;-74
2023/10/06 03:35:48;;;;;;;9.48;4.32;;;14.40;99.90;;;;;;2082368;28;20576;-74
2023/10/06 03:36:51;;;;;;;11.18;4.68;;;14.50;99.90;;;;;;2077831;28;20029;-74
2023/10/06 03:37:56;;;;;;;12.07;5.00;;;14.50;99.90;;;;;;2078072;28;20025;-73
2023/10/06 03:39:06;;;;;;;11.95;4.63;;;14.50;99.90;;;;;;2072314;28;20539;-73
2023/10/06 03:40:13;;;;;;;10.15;4.88;;;14.50;99.90;;;;;;2075181;28;20033;-74
2023/10/06 03:41:18;;;;;;;10.77;4.97;;;14.50;99.90;;;;;;2074385;28;20119;-74
2023/10/06 03:42:20;;;;;;;10.25;5.07;;;14.50;99.90;;;;;;2077627;28;20017;-74
2023/10/06 03:43:34;;;;;;;11.07;4.78;;;14.50;99.90;;;;;;2076861;28;20044;-74
2023/10/06 03:44:34;;;;;;;11.88;4.90;;;14.50;99.90;;;;;;2072779;28;20038;-74
2023/10/06 03:45:39;;;;;;;12.13;4.82;;;14.50;99.90;;;;;;2065955;28;20096;-73
2023/10/06 03:46:40;;;;;;;9.02;4.78;;;14.50;99.90;;;;;;2067328;28;20176;-73
2023/10/06 03:47:43;;;;;;;10.18;4.60;;;14.50;99.90;;;;;;2073803;28;20095;-74
2023/10/06 03:48:43;;;;;;;9.40;4.38;;;14.50;99.90;;;;;;2077742;28;20389;-73
2023/10/06 03:49:47;;;;;;;10.05;4.50;;;14.50;99.90;;;;;;2065945;28;20133;-74
2023/10/06 03:50:47;;;;;;;12.23;4.82;;;14.50;99.90;;;;;;2079217;28;20536;-74
2023/10/06 03:51:48;;;;;;;8.95;4.43;;;14.50;99.90;;;;;;2074968;28;20065;-74
2023/10/06 03:52:48;;;;;;;12.30;4.78;;;14.50;99.90;;;;;;2069837;28;20026;-73
2023/10/06 03:53:49;;;;;;;10.60;4.78;;;14.40;99.90;;;;;;2065642;28;20030;-73
2023/10/06 03:54:52;;;;;;;10.98;4.63;;;14.40;99.90;;;;;;2066389;28;20014;-73
2023/10/06 03:55:53;;;;;;;10.38;4.45;;;14.40;99.90;;;;;;2076880;28;20026;-75
2023/10/06 03:56:53;;;;;;;11.30;4.57;;;14.40;99.90;;;;;;2087076;28;20055;-75
2023/10/06 03:57:54;;;;;;;10.57;4.60;;;14.50;99.90;;;;;;2090525;28;20079;-70
2023/10/06 03:58:54;;;;;;;11.32;4.65;;;14.40;99.90;;;;;;2085081;28;20112;-70
2023/10/06 03:59:55;;;;;;;10.38;5.00;;;14.50;99.90;;;;;;2081824;28;20044;-71
2023/10/06 04:00:56;;;;;;;10.38;4.68;;;14.40;99.90;;;;;;2074305;28;20469;-70
2023/10/06 04:01:59;;;;;;;9.63;4.47;;;14.40;99.90;;;;;;2078741;28;20036;-72
2023/10/06 04:03:03;;;;;;;10.30;4.63;;;14.40;99.90;;;;;;2075361;28;20109;-71
2023/10/06 04:04:05;;;;;;;12.18;4.68;;;14.40;99.90;;;;;;2060790;28;20117;-71
2023/10/06 04:05:06;;;;;;;13.50;4.93;;;14.40;99.90;;;;;;2071903;28;20701;-70
2023/10/06 04:06:12;;;;;;;11.57;4.88;;;14.40;99.90;;;;;;2086256;28;20446;-70
2023/10/06 04:07:13;;;;;;;11.75;4.85;;;14.40;99.90;;;;;;2087127;28;20017;-70
2023/10/06 04:08:16;;;;;;;14.07;4.82;;;14.40;99.90;;;;;;2086904;28;20479;-73
2023/10/06 04:09:26;;;;;;;10.07;4.53;;;14.40;99.90;;;;;;2078808;28;20025;-74
2023/10/06 04:10:27;;;;;;;7.40;4.57;;;14.40;99.90;;;;;;2083743;28;20048;-74
2023/10/06 04:11:31;;;;;;;11.75;4.80;;;14.40;99.90;;;;;;2084485;28;20039;-72
2023/10/06 04:12:32;;;;;;;9.85;4.50;;;14.40;99.90;;;;;;2084810;28;20059;-73
2023/10/06 04:13:32;;;;;;;9.43;4.25;;;14.40;99.90;;;;;;2085017;28;20029;-73
2023/10/06 04:14:33;;;;;;;10.85;4.55;;;14.40;99.90;;;;;;2085457;28;20024;-72
2023/10/06 04:15:38;;;;;;;11.75;4.70;;;14.40;99.90;;;;;;2085149;28;20025;-72
2023/10/06 04:16:45;;;;;;;11.80;4.93;;;14.40;99.90;;;;;;2085258;28;20033;-71
2023/10/06 04:17:46;;;;;;;12.23;4.68;;;14.50;99.90;;;;;;2081989;28;20025;-72
2023/10/06 04:18:47;;;;;;;13.27;4.63;;;14.40;99.90;;;;;;2084470;28;20017;-72
2023/10/06 04:19:51;;;;;;;10.23;4.90;;;14.40;99.90;;;;;;2070814;28;20022;-72
2023/10/06 04:20:53;;;;;;;11.85;4.93;;;14.40;99.90;;;;;;2068010;28;20073;-72
2023/10/06 04:21:53;;;;;;;9.15;4.90;;;14.40;99.90;;;;;;2075524;28;20117;-72
2023/10/06 04:22:54;;;;;;;9.98;4.93;;;14.40;99.90;;;;;;2074531;28;20025;-71
2023/10/06 04:23:54;;;;;;;12.25;5.00;;;14.40;99.90;;;;;;2075629;28;20036;-71
2023/10/06 04:24:55;;;;;;;9.20;4.68;;;14.40;99.90;;;;;;2078675;28;20029;-71
2023/10/06 04:25:56;;;;;;;11.63;5.30;;;14.40;99.90;;;;;;2093748;28;20122;-72
2023/10/06 04:26:56;;;;;;;11.82;5.75;;;14.40;99.90;;;;;;2095398;28;20041;-71
2023/10/06 04:27:57;;;;;;;10.02;4.45;;;14.40;99.90;;;;;;2087929;28;20032;-71
2023/10/06 04:28:59;;;;;;;11.82;4.82;;;14.40;99.90;;;;;;2088086;28;20054;-72
2023/10/06 04:29:59;;;;;;;8.85;4.55;;;14.40;99.90;;;;;;2084028;28;20029;-71
2023/10/06 04:31:05;;;;;;;9.20;4.40;;;14.40;99.90;;;;;;2083566;28;20068;-73
2023/10/06 04:32:07;;;;;;;11.23;4.97;;;14.40;99.90;;;;;;2089247;28;21043;-72
2023/10/06 04:33:10;;;;;;;10.32;4.70;;;14.30;99.90;;;;;;2092600;28;20044;-72
2023/10/06 04:34:10;;;;;;;12.15;4.40;;;14.40;99.90;;;;;;2095829;28;20024;-72
2023/10/06 04:35:19;;;;;;;11.23;4.88;;;14.40;99.90;;;;;;2096656;28;20364;-74
2023/10/06 04:36:24;;;;;;;10.32;4.53;;;14.30;99.90;;;;;;2088914;28;20034;-72
2023/10/06 04:37:24;;;;;;;11.80;4.60;;;14.30;99.90;;;;;;2093672;28;20040;-71
2023/10/06 04:38:29;;;;;;;11.68;4.50;;;14.30;99.90;;;;;;2100977;28;20016;-72
2023/10/06 04:39:29;;;;;;;10.30;4.57;;;14.30;99.90;;;;;;2096855;28;20043;-72
2023/10/06 04:40:30;;;;;;;8.85;4.50;;;14.30;99.90;;;;;;2094178;28;20488;-72
2023/10/06 04:41:30;;;;;;;10.05;4.55;;;14.30;99.90;;;;;;2094171;28;20129;-72
2023/10/06 04:42:31;;;;;;;9.43;4.88;;;14.30;99.90;;;;;;2096844;28;20140;-72
2023/10/06 04:43:32;;;;;;;11.00;4.70;;;14.30;99.90;;;;;;2094736;28;20041;-72
2023/10/06 04:44:34;;;;;;;13.52;5.03;;;14.30;99.90;;;;;;2096933;28;20024;-73
2023/10/06 04:45:38;;;;;;;8.93;4.78;;;14.30;99.90;;;;;;2092537;28;20032;-72
2023/10/06 04:46:39;;;;;;;10.65;4.50;;;14.30;99.90;;;;;;2096787;28;20092;-72
2023/10/06 04:47:41;;;;;;;13.25;4.78;;;14.30;99.90;;;;;;2092325;28;20514;-72
2023/10/06 04:48:41;;;;;;;11.50;4.90;;;14.30;99.90;;;;;;2096168;28;20105;-72
2023/10/06 04:49:42;;;;;;;9.32;4.75;;;14.30;99.90;;;;;;2096826;28;20425;-74
2023/10/06 04:50:42;;;;;;;12.10;4.40;;;14.30;99.90;;;;;;2101216;28;20038;-71
2023/10/06 04:51:43;;;;;;;9.75;4.60;;;14.30;99.90;;;;;;2096531;28;20035;-71
2023/10/06 04:52:44;;;;;;;8.68;4.63;;;14.30;99.90;;;;;;2092834;28;20110;-71
2023/10/06 04:53:46;;;;;;;8.65;4.70;;;14.30;99.90;;;;;;2100527;28;20028;-71
2023/10/06 04:54:47;;;;;;;9.52;4.70;;;14.20;99.90;;;;;;2083909;28;20039;-70
2023/10/06 04:55:48;;;;;;;12.50;4.90;;;14.20;99.90;;;;;;2083643;28;20537;-70
2023/10/06 04:56:52;;;;;;;10.43;4.90;;;14.20;99.90;;;;;;2091576;28;20029;-71
2023/10/06 04:57:52;;;;;;;9.35;4.80;;;14.20;99.90;;;;;;2083740;28;20604;-71
2023/10/06 04:58:53;;;;;;;11.50;4.75;;;14.20;99.90;;;;;;2092233;28;20050;-71
2023/10/06 04:59:54;;;;;;;9.80;4.85;;;14.20;99.90;;;;;;2089911;28;20082;-70
2023/10/06 05:00:59;;;;;;;12.15;5.60;;;14.10;99.90;;;;;;2092841;28;20609;-72
2023/10/06 05:02:02;;;;;;;11.48;4.82;;;14.10;99.90;;;;;;2098729;28;20495;-72
2023/10/06 05:03:04;;;;;;;9.60;4.45;;;14.00;99.90;;;;;;2085475;28;20051;-72
2023/10/06 05:04:08;;;;;;;9.98;5.10;;;14.00;99.90;;;;;;2087875;28;20028;-72
2023/10/06 05:05:12;;;;;;;10.50;4.68;;;14.00;99.90;;;;;;2092507;28;20546;-73
2023/10/06 05:06:15;;;;;;;10.80;5.32;;;14.00;99.90;;;;;;2096010;28;20031;-72
2023/10/06 05:07:16;;;;;;;10.18;5.18;;;14.00;99.90;;;;;;2083464;28;20439;-72
2023/10/06 05:08:17;;;;;;;12.95;5.25;;;13.90;99.90;;;;;;2085274;28;20075;-72
2023/10/06 05:09:18;;;;;;;13.45;5.40;;;13.90;99.90;;;;;;2101160;28;20027;-71
2023/10/06 05:10:21;;;;;;;12.52;5.28;;;13.90;99.90;;;;;;2083305;28;20017;-73
2023/10/06 05:11:23;;;;;;;8.57;4.75;;;13.90;99.90;;;;;;2084154;28;20384;-72
2023/10/06 05:12:24;;;;;;;14.65;5.45;;;13.90;99.90;;;;;;2093840;28;20060;-72
2023/10/06 05:13:26;;;;;;;11.35;5.30;;;13.80;99.90;;;;;;2087462;28;20069;-74
2023/10/06 05:14:27;;;;;;;8.25;4.82;;;13.90;99.90;;;;;;2081018;28;20029;-75
2023/10/06 05:15:30;;;;;;;11.88;4.88;;;13.80;99.90;;;;;;2084804;28;20029;-73
2023/10/06 05:16:33;;;;;;;11.15;5.18;;;13.80;99.90;;;;;;2085696;28;20025;-72
2023/10/06 05:17:36;;;;;;;11.45;5.25;;;13.80;99.90;;;;;;2087108;28;20035;-72
2023/10/06 05:18:40;;;;;;;9.88;4.70;;;13.80;99.90;;;;;;2090255;28;20124;-74
2023/10/06 05:19:42;;;;;;;11.20;5.18;;;13.80;99.90;;;;;;2092363;28;20102;-73
2023/10/06 05:20:43;;;;;;;10.27;5.25;;;13.70;99.90;;;;;;2093377;28;20475;-71
2023/10/06 05:21:43;;;;;;;12.25;5.28;;;13.70;99.90;;;;;;2095898;28;20020;-72
2023/10/06 05:22:44;;;;;;;12.88;5.45;;;13.70;99.90;;;;;;2092060;28;20105;-81
2023/10/06 05:23:45;;;;;;;13.13;5.32;;;13.70;99.90;;;;;;2091719;28;20601;-74
2023/10/06 05:24:47;;;;;;;11.60;5.38;;;13.60;99.90;;;;;;2082959;28;20021;-73
2023/10/06 05:25:48;;;;;;;14.02;5.43;;;13.60;99.90;;;;;;2084082;28;20055;-69
2023/10/06 05:26:50;;;;;;;12.27;5.13;;;13.60;99.90;;;;;;2091090;28;20033;-70
2023/10/06 05:27:53;;;;;;;11.70;5.57;;;13.70;99.90;;;;;;2088834;28;20036;-70
2023/10/06 05:28:53;;;;;;;14.57;5.93;;;13.70;99.90;;;;;;2087203;28;20035;-71
2023/10/06 05:29:54;;;;;;;12.70;5.82;;;13.70;99.90;;;;;;2082134;28;20088;-71
2023/10/06 05:30:56;;;;;;;11.73;7.25;;;13.70;99.90;;;;;;2084040;28;20033;-72
2023/10/06 05:31:57;;;;;;;17.27;8.13;;;13.70;99.90;;;;;;2100274;28;20532;-73
2023/10/06 05:32:59;;;;;;;12.82;5.60;;;13.70;99.90;;;;;;2085978;28;20032;-71